Fort Worth

Airport
ICAO code: 
KAFW
Summary
ICAO Region: 
NAM
Territory: 
Location: 
Fort Worth, Tarrant County, Texas,
Coordinates: 
Aerial View: 
32° 59' 36.818" N, 97° 18' 34.86" W
Metar
Observation
KAFW 021453Z 00000KT 10SM FEW250 13/08 A3013 RMK AO2 SLP203 T01280078 51010
Station
Fort Worth, Fort Worth Alliance Airport
Date/Time
2021-12-02 14:53:00
Wind direction
Wind speed
00 kts
Lowest cloud amount
few clouds
Temperature
12.8°C
Dew point
7.8°C
Humidity
71%
Weather condition
n/a

Description

Fort Worth Alliance Airport is a city-owned public-use airport located 23 km north of the central business district of Fort Worth, city in Tarrant County, Texas, United States.

Climatology

Runways

Designator Length Width Surface Rops
16R/34L 2505 46 CON Yes/Yes
16L/34R 2926 46 CON Yes/Yes
Airport map: 
Aerial View: 

SKYbrary Partners:

Safety knowledge contributed by: